createdAt,value
2023-01-17T00:02:05.878Z,97194.75
2023-01-17T00:04:51.319Z,97204.47
2023-01-17T00:07:39.111Z,97195.84
2023-01-17T00:10:09.162Z,97194.19
2023-01-17T00:12:38.417Z,97196.09
2023-01-17T00:15:08.011Z,97195.34
2023-01-17T00:17:35.605Z,97200.72
2023-01-17T00:20:20.984Z,97207.75
2023-01-17T00:23:06.044Z,97200.72
2023-01-17T00:25:55.427Z,97195.59
2023-01-17T00:28:24.033Z,97195.66
2023-01-17T00:30:50.648Z,97209.75
2023-01-17T00:33:17.466Z,97202.84
2023-01-17T00:35:44.337Z,97197.63
2023-01-17T00:38:12.399Z,97197.72
2023-01-17T00:40:41.406Z,97206.47
2023-01-17T00:43:27.577Z,97193.41
2023-01-17T00:46:14.678Z,97200.34
2023-01-17T00:49:00.915Z,97206.47
2023-01-17T00:51:47.179Z,97206.41
2023-01-17T00:54:33.064Z,97193.25
2023-01-17T00:57:18.372Z,97208.09
2023-01-17T01:00:03.659Z,97201.97
2023-01-17T01:02:51.472Z,97208.09
2023-01-17T01:05:36.757Z,97206.31
2023-01-17T01:08:22.468Z,97208.06
2023-01-17T01:11:08.125Z,97207.19
2023-01-17T01:13:53.224Z,97206.28
2023-01-17T01:16:39.320Z,97210.72
2023-01-17T01:19:25.982Z,97216.00
2023-01-17T01:22:11.142Z,97212.53
2023-01-17T01:24:56.271Z,97212.56
2023-01-17T01:27:41.835Z,97214.34
2023-01-17T01:30:28.119Z,97223.13
2023-01-17T01:33:13.564Z,97223.13
2023-01-17T01:35:43.130Z,97230.19
2023-01-17T01:38:10.876Z,97224.97
2023-01-17T01:40:43.538Z,97229.38
2023-01-17T01:43:13.999Z,97228.47
2023-01-17T01:45:45.574Z,97218.91
2023-01-17T01:48:25.889Z,97234.69
2023-01-17T01:50:55.237Z,97232.13
2023-01-17T01:53:23.571Z,97233.94
2023-01-17T01:55:53.036Z,97237.41
2023-01-17T01:58:24.057Z,97238.34
2023-01-17T02:00:52.481Z,97243.59
2023-01-17T02:03:23.714Z,97236.56
2023-01-17T02:05:51.739Z,97234.88
2023-01-17T02:08:24.002Z,97243.66
2023-01-17T02:10:52.251Z,97245.47
2023-01-17T02:13:21.288Z,97252.44
2023-01-17T02:16:00.204Z,97255.06
2023-01-17T02:18:39.566Z,97256.00
2023-01-17T02:21:20.851Z,97254.25
2023-01-17T02:24:26.028Z,97256.00
2023-01-17T02:27:00.909Z,97254.22
2023-01-17T02:30:05.256Z,97258.59
2023-01-17T02:32:45.457Z,97265.53
2023-01-17T02:35:20.355Z,97260.34
2023-01-17T02:37:59.484Z,97259.50
2023-01-17T02:40:30.809Z,97258.66
2023-01-17T02:43:05.567Z,97264.72
2023-01-17T02:45:33.360Z,97269.16
2023-01-17T02:48:02.321Z,97273.56
2023-01-17T02:50:42.229Z,97266.56
2023-01-17T02:53:24.995Z,97271.81
2023-01-17T02:55:58.859Z,97278.81
2023-01-17T02:58:40.921Z,97282.31
2023-01-17T03:01:19.625Z,97282.31
2023-01-17T03:03:54.549Z,97288.41
2023-01-17T03:06:30.269Z,97296.22
2023-01-17T03:08:57.897Z,97294.44
2023-01-17T03:11:27.193Z,97299.66
2023-01-17T03:13:57.373Z,97293.59
2023-01-17T03:16:27.373Z,97294.56
2023-01-17T03:18:56.380Z,97304.13
2023-01-17T03:21:25.129Z,97310.25
2023-01-17T03:23:53.092Z,97311.91
2023-01-17T03:26:20.761Z,97303.19
2023-01-17T03:28:48.410Z,97319.72
2023-01-17T03:31:16.695Z,97319.72
2023-01-17T03:33:44.601Z,97332.81
2023-01-17T03:36:13.751Z,97335.41
2023-01-17T03:38:41.611Z,97344.06
2023-01-17T03:41:09.563Z,97346.69
2023-01-17T03:43:37.172Z,97354.50
2023-01-17T03:46:07.099Z,97351.84
2023-01-17T03:48:35.246Z,97364.94
2023-01-17T03:51:02.921Z,97369.19
2023-01-17T03:53:31.975Z,97370.78
2023-01-17T03:56:00.643Z,97381.13
2023-01-17T03:58:28.227Z,97389.00
2023-01-17T04:00:55.870Z,97391.63
2023-01-17T04:03:23.607Z,97389.88
2023-01-17T04:05:51.181Z,97396.00
2023-01-17T04:08:18.778Z,97391.66
2023-01-17T04:10:47.835Z,97409.13
2023-01-17T04:13:16.723Z,97394.28
2023-01-17T04:15:46.413Z,97399.53
2023-01-17T04:18:14.456Z,97397.84
2023-01-17T04:20:42.031Z,97409.19
2023-01-17T04:23:09.616Z,97408.34
2023-01-17T04:25:37.235Z,97403.97
2023-01-17T04:28:06.816Z,97418.88
2023-01-17T04:30:34.688Z,97408.44
2023-01-17T04:33:02.291Z,97418.09
2023-01-17T04:35:31.181Z,97418.13
2023-01-17T04:37:58.694Z,97416.38
2023-01-17T04:40:26.495Z,97414.72
2023-01-17T04:42:54.234Z,97421.72
2023-01-17T04:45:23.112Z,97427.88
2023-01-17T04:47:50.656Z,97421.84
2023-01-17T04:50:18.457Z,97429.72
2023-01-17T04:52:46.090Z,97428.84
2023-01-17T04:55:13.787Z,97435.03
2023-01-17T04:57:41.292Z,97433.34
2023-01-17T05:00:10.022Z,97436.88
2023-01-17T05:02:38.962Z,97445.63
2023-01-17T05:05:08.194Z,97445.63
2023-01-17T05:07:35.884Z,97445.69
2023-01-17T05:10:04.504Z,97457.94
2023-01-17T05:12:32.266Z,97457.94
2023-01-17T05:14:59.783Z,97456.22
2023-01-17T05:17:27.521Z,97464.09
2023-01-17T05:19:56.578Z,97462.38
2023-01-17T05:22:24.124Z,97465.91
2023-01-17T05:24:51.664Z,97465.91
2023-01-17T05:27:19.148Z,97469.44
2023-01-17T05:29:46.692Z,97472.97
2023-01-17T05:32:14.218Z,97478.19
2023-01-17T05:34:41.720Z,97480.84
2023-01-17T05:37:10.611Z,97492.25
2023-01-17T05:39:38.105Z,97490.50
2023-01-17T05:42:05.940Z,97493.13
2023-01-17T05:44:33.423Z,97501.84
2023-01-17T05:47:00.918Z,97507.97
2023-01-17T05:49:28.421Z,97514.09
2023-01-17T05:51:57.841Z,97514.94
2023-01-17T05:54:26.671Z,97523.66
2023-01-17T05:56:54.349Z,97528.91
2023-01-17T05:59:32.388Z,97528.00
2023-01-17T06:02:03.911Z,97533.25
2023-01-17T06:04:31.505Z,97533.28
2023-01-17T06:06:59.004Z,97532.50
2023-01-17T06:09:27.843Z,97536.91
2023-01-17T06:11:55.348Z,97545.69
2023-01-17T06:14:22.917Z,97549.22
2023-01-17T06:16:50.424Z,97550.09
2023-01-17T06:19:17.925Z,97550.09
2023-01-17T06:21:45.438Z,97562.34
2023-01-17T06:24:13.203Z,97560.56
2023-01-17T06:26:44.401Z,97556.25
2023-01-17T06:29:12.208Z,97557.09
2023-01-17T06:31:39.733Z,97566.72
2023-01-17T06:34:07.325Z,97570.25
2023-01-17T06:36:34.954Z,97565.09
2023-01-17T06:39:02.459Z,97567.75
2023-01-17T06:41:29.955Z,97563.44
2023-01-17T06:43:58.768Z,97581.78
2023-01-17T06:46:26.319Z,97586.19
2023-01-17T06:48:53.881Z,97587.06
2023-01-17T06:51:21.822Z,97595.78
2023-01-17T06:53:49.483Z,97594.97
2023-01-17T06:56:17.201Z,97605.47
2023-01-17T06:58:44.696Z,97598.56
2023-01-17T07:01:14.184Z,97611.75
2023-01-17T07:03:41.977Z,97611.81
2023-01-17T07:06:10.068Z,97624.94
2023-01-17T07:08:37.932Z,97631.94
2023-01-17T07:11:07.843Z,97642.34
2023-01-17T07:13:36.611Z,97647.63
2023-01-17T07:16:05.273Z,97650.28
2023-01-17T07:18:35.359Z,97659.84
2023-01-17T07:21:02.895Z,97673.84
2023-01-17T07:23:30.490Z,97674.72
2023-01-17T07:25:59.649Z,97683.41
2023-01-17T07:28:29.035Z,97693.00
2023-01-17T07:30:57.347Z,97693.00
2023-01-17T07:33:24.928Z,97694.69
2023-01-17T07:35:53.777Z,97702.50
2023-01-17T07:38:21.632Z,97704.22
2023-01-17T07:40:49.172Z,97706.84
2023-01-17T07:43:17.289Z,97713.78
2023-01-17T07:45:46.146Z,97721.59
2023-01-17T07:48:14.126Z,97723.34
2023-01-17T07:50:41.697Z,97740.78
2023-01-17T07:53:11.210Z,97750.41
2023-01-17T07:55:38.781Z,97763.50
2023-01-17T07:58:06.382Z,97763.53
2023-01-17T08:00:34.013Z,97758.41
2023-01-17T08:03:02.116Z,97761.09
2023-01-17T08:05:31.186Z,97761.97
2023-01-17T08:07:58.780Z,97752.50
2023-01-17T08:10:27.671Z,97754.28
2023-01-17T08:12:55.343Z,97752.59
2023-01-17T08:15:23.494Z,97750.03
2023-01-17T08:17:53.168Z,97764.84
2023-01-17T08:20:22.178Z,97763.16
2023-01-17T08:22:49.825Z,97770.16
2023-01-17T08:25:17.382Z,97769.28
2023-01-17T08:27:46.247Z,97776.28
2023-01-17T08:30:14.265Z,97774.50
2023-01-17T08:32:41.794Z,97783.28
2023-01-17T08:35:10.377Z,97783.28
2023-01-17T08:37:39.009Z,97786.88
2023-01-17T08:40:08.775Z,97794.75
2023-01-17T08:42:39.202Z,97800.88
2023-01-17T08:45:11.769Z,97800.03
2023-01-17T08:47:39.465Z,97806.13
2023-01-17T08:50:07.875Z,97801.78
2023-01-17T08:52:35.999Z,97811.31
2023-01-17T08:55:03.756Z,97830.56
2023-01-17T08:57:31.942Z,97827.06
2023-01-17T08:59:59.777Z,97834.06
2023-01-17T09:02:28.627Z,97841.94
2023-01-17T09:04:56.136Z,97834.09
2023-01-17T09:07:24.347Z,97840.22
2023-01-17T09:09:52.679Z,97842.84
2023-01-17T09:12:22.125Z,97848.00
2023-01-17T09:14:50.204Z,97860.19
2023-01-17T09:17:17.694Z,97857.56
2023-01-17T09:19:48.626Z,97858.38
2023-01-17T09:22:16.388Z,97867.03
2023-01-17T09:24:43.947Z,97871.31
2023-01-17T09:27:11.498Z,97882.59
2023-01-17T09:29:38.989Z,97888.69
2023-01-17T09:32:06.740Z,97896.50
2023-01-17T09:34:34.309Z,97893.88
2023-01-17T09:37:03.192Z,97892.91
2023-01-17T09:39:30.733Z,97904.13
2023-01-17T09:42:04.013Z,97903.97
2023-01-17T09:44:42.262Z,97906.31
2023-01-17T09:47:19.921Z,97908.66
2023-01-17T09:49:48.410Z,97910.28
2023-01-17T09:52:20.930Z,97931.22
2023-01-17T09:54:50.066Z,97924.16
2023-01-17T09:57:31.990Z,97916.13
2023-01-17T10:00:07.697Z,97932.63
2023-01-17T10:02:51.748Z,97944.00
2023-01-17T10:05:33.713Z,97934.38
2023-01-17T10:08:14.730Z,97938.75
2023-01-17T10:10:44.144Z,97942.25
2023-01-17T10:13:27.548Z,97953.63
2023-01-17T10:16:13.370Z,97944.91
2023-01-17T10:18:57.044Z,97940.56
2023-01-17T10:21:34.613Z,97955.41
2023-01-17T10:24:25.032Z,97948.44
2023-01-17T10:26:56.209Z,97954.53
2023-01-17T10:29:27.935Z,97955.44
2023-01-17T10:32:00.523Z,97949.28
2023-01-17T10:34:34.019Z,97954.50
2023-01-17T10:37:07.179Z,97949.22
2023-01-17T10:39:36.442Z,97955.31
2023-01-17T10:42:14.299Z,97957.94
2023-01-17T10:44:47.138Z,97954.47
2023-01-17T10:47:20.689Z,97964.06
2023-01-17T10:49:51.963Z,97958.75
2023-01-17T10:52:31.096Z,97963.97
2023-01-17T10:55:11.459Z,97959.34
2023-01-17T10:57:42.670Z,97950.38
2023-01-17T11:00:49.000Z,97956.31
2023-01-17T11:03:20.701Z,97955.09
2023-01-17T11:06:16.360Z,97945.16
2023-01-17T11:08:51.868Z,97956.34
2023-01-17T11:11:21.641Z,97957.84
2023-01-17T11:13:50.203Z,97951.69
2023-01-17T11:16:21.112Z,97949.19
2023-01-17T11:19:05.488Z,97952.78
2023-01-17T11:21:33.758Z,97963.34
2023-01-17T11:24:11.411Z,97958.25
2023-01-17T11:26:49.313Z,97963.38
2023-01-17T11:29:29.631Z,97966.69
2023-01-17T11:31:57.413Z,97962.13
2023-01-17T11:34:26.440Z,97965.69
2023-01-17T11:37:09.862Z,97964.97
2023-01-17T11:39:37.417Z,97967.69
2023-01-17T11:42:32.880Z,97966.94
2023-01-17T11:45:24.384Z,97971.50
2023-01-17T11:48:10.101Z,97961.88
2023-01-17T11:50:39.952Z,97960.13
2023-01-17T11:53:15.593Z,97973.09
2023-01-17T11:55:53.885Z,97966.69
2023-01-17T11:58:24.133Z,97960.47
2023-01-17T12:01:00.414Z,97970.88
2023-01-17T12:03:58.019Z,97964.72
2023-01-17T12:06:44.792Z,97969.06
2023-01-17T12:09:28.352Z,97970.69
2023-01-17T12:12:22.068Z,97977.25
2023-01-17T12:15:03.180Z,97986.50
2023-01-17T12:17:45.326Z,97983.56
2023-01-17T12:20:23.852Z,97974.56
2023-01-17T12:23:17.659Z,97979.00
2023-01-17T12:25:57.718Z,97990.69
2023-01-17T12:28:47.174Z,97999.75
2023-01-17T12:31:28.755Z,97985.84
2023-01-17T12:34:02.902Z,97995.66
2023-01-17T12:36:40.779Z,97995.88
2023-01-17T12:39:11.841Z,97993.19
2023-01-17T12:41:57.369Z,97999.25
2023-01-17T12:44:38.974Z,97998.47
2023-01-17T12:47:08.247Z,98002.13
2023-01-17T12:49:42.549Z,98009.09
2023-01-17T12:52:19.306Z,98008.44
2023-01-17T12:54:51.412Z,98002.22
2023-01-17T12:57:23.384Z,98007.50
2023-01-17T12:59:59.122Z,98010.34
2023-01-17T13:02:37.335Z,98025.34
2023-01-17T13:05:09.783Z,98024.47
2023-01-17T13:07:46.730Z,98024.34
2023-01-17T13:10:31.849Z,98030.91
2023-01-17T13:13:05.736Z,98023.47
2023-01-17T13:15:37.513Z,98029.28
2023-01-17T13:18:11.522Z,98028.78
2023-01-17T13:20:57.840Z,98029.19
2023-01-17T13:23:31.567Z,98041.03
2023-01-17T13:26:00.153Z,98048.66
2023-01-17T13:28:44.870Z,98054.41
2023-01-17T13:31:24.203Z,98052.28
2023-01-17T13:34:12.192Z,98053.53
2023-01-17T13:36:57.834Z,98055.97
2023-01-17T13:39:44.636Z,98049.53
2023-01-17T13:42:23.598Z,98054.44
2023-01-17T13:44:51.464Z,98056.75
2023-01-17T13:47:49.410Z,98056.63
2023-01-17T13:50:50.459Z,98063.44
2023-01-17T13:53:57.166Z,98064.03
2023-01-17T13:56:35.305Z,98059.38
2023-01-17T13:59:05.598Z,98069.72
2023-01-17T14:01:53.309Z,98070.75
2023-01-17T14:04:22.162Z,98079.94
2023-01-17T14:06:56.762Z,98083.47
2023-01-17T14:09:28.659Z,98087.09
2023-01-17T14:12:03.697Z,98084.59
2023-01-17T14:14:45.456Z,98083.81
2023-01-17T14:17:47.988Z,98080.56
2023-01-17T14:20:51.262Z,98087.75
2023-01-17T14:23:36.020Z,98080.88
2023-01-17T14:26:21.934Z,98086.53
2023-01-17T14:28:49.837Z,98086.13
2023-01-17T14:31:19.211Z,98092.56
2023-01-17T14:33:46.734Z,98092.00
2023-01-17T14:36:24.857Z,98087.09
2023-01-17T14:38:54.563Z,98092.69
2023-01-17T14:41:25.371Z,98093.06
2023-01-17T14:43:53.337Z,98092.50
2023-01-17T14:46:26.095Z,98087.41
2023-01-17T14:49:00.575Z,98096.31
2023-01-17T14:51:28.384Z,98101.78
2023-01-17T14:53:58.767Z,98113.28
2023-01-17T14:56:27.986Z,98117.91
2023-01-17T14:59:06.567Z,98115.63
2023-01-17T15:01:36.224Z,98122.81
2023-01-17T15:04:04.958Z,98125.66
2023-01-17T15:06:38.693Z,98118.88
2023-01-17T15:09:19.441Z,98122.53
2023-01-17T15:11:48.712Z,98119.19
2023-01-17T15:14:22.096Z,98128.09
2023-01-17T15:16:51.936Z,98123.91
2023-01-17T15:19:20.406Z,98131.94
2023-01-17T15:21:50.816Z,98125.03
2023-01-17T15:24:23.520Z,98127.75
2023-01-17T15:26:51.688Z,98135.69
2023-01-17T15:29:25.979Z,98142.78
2023-01-17T15:31:58.123Z,98147.25
2023-01-17T15:34:30.402Z,98150.00
2023-01-17T15:37:01.079Z,98151.84
2023-01-17T15:39:32.587Z,98146.72
2023-01-17T15:42:03.588Z,98152.03
2023-01-17T15:44:50.242Z,98151.28
2023-01-17T15:47:28.971Z,98159.31
2023-01-17T15:49:56.675Z,98159.44
2023-01-17T15:52:24.284Z,98159.53
2023-01-17T15:54:54.730Z,98153.56
2023-01-17T15:57:26.771Z,98156.25
2023-01-17T16:00:01.050Z,98163.38
2023-01-17T16:02:37.394Z,98160.81
2023-01-17T16:05:33.291Z,98151.31
2023-01-17T16:08:33.570Z,98152.25
2023-01-17T16:11:06.244Z,98150.59
2023-01-17T16:13:37.104Z,98161.16
2023-01-17T16:16:16.906Z,98162.94
2023-01-17T16:18:46.417Z,98156.88
2023-01-17T16:21:19.631Z,98160.44
2023-01-17T16:23:47.197Z,98172.69
2023-01-17T16:26:16.799Z,98157.00
2023-01-17T16:28:44.584Z,98159.69
2023-01-17T16:31:12.533Z,98159.72
2023-01-17T16:33:42.021Z,98164.09
2023-01-17T16:36:14.797Z,98164.13
2023-01-17T16:38:43.317Z,98167.66
2023-01-17T16:41:11.396Z,98176.41
2023-01-17T16:43:40.329Z,98170.34
2023-01-17T16:46:08.221Z,98175.59
2023-01-17T16:48:38.251Z,98175.59
2023-01-17T16:51:07.883Z,98176.50
2023-01-17T16:53:37.000Z,98178.25
2023-01-17T16:56:11.915Z,98181.78
2023-01-17T16:58:41.833Z,98178.31
2023-01-17T17:01:10.686Z,98185.31
2023-01-17T17:03:38.473Z,98179.22
2023-01-17T17:06:06.315Z,98178.38
2023-01-17T17:08:34.989Z,98190.56
2023-01-17T17:11:13.139Z,98192.31
2023-01-17T17:13:43.079Z,98187.97
2023-01-17T17:16:12.878Z,98191.47
2023-01-17T17:18:40.452Z,98196.72
2023-01-17T17:21:08.382Z,98186.28
2023-01-17T17:23:35.861Z,98192.38
2023-01-17T17:26:03.434Z,98187.16
2023-01-17T17:28:30.993Z,98190.63
2023-01-17T17:31:10.275Z,98187.16
2023-01-17T17:33:38.697Z,98192.34
2023-01-17T17:36:09.983Z,98187.13
2023-01-17T17:38:38.041Z,98194.09
2023-01-17T17:41:07.393Z,98187.13
2023-01-17T17:43:40.476Z,98183.66
2023-01-17T17:46:09.952Z,98187.16
2023-01-17T17:48:37.826Z,98200.16
2023-01-17T17:51:06.266Z,98210.59
2023-01-17T17:53:34.485Z,98207.09
2023-01-17T17:56:07.028Z,98207.97
2023-01-17T17:58:36.196Z,98219.25
2023-01-17T18:01:05.473Z,98213.16
2023-01-17T18:03:35.115Z,98215.75
2023-01-17T18:06:05.026Z,98220.09
2023-01-17T18:08:33.650Z,98216.59
2023-01-17T18:11:02.876Z,98215.72
2023-01-17T18:13:31.650Z,98216.56
2023-01-17T18:16:05.546Z,98218.28
2023-01-17T18:18:35.157Z,98221.78
2023-01-17T18:21:08.655Z,98217.41
2023-01-17T18:23:38.264Z,98220.00
2023-01-17T18:26:06.235Z,98225.22
2023-01-17T18:28:33.976Z,98222.59
2023-01-17T18:31:07.135Z,98227.75
2023-01-17T18:33:38.572Z,98219.94
2023-01-17T18:36:08.115Z,98225.13
2023-01-17T18:38:39.661Z,98220.75
2023-01-17T18:41:08.407Z,98225.06
2023-01-17T18:43:36.583Z,98230.28
2023-01-17T18:46:04.688Z,98227.66
2023-01-17T18:48:32.259Z,98225.00
2023-01-17T18:51:03.356Z,98221.50
2023-01-17T18:53:31.611Z,98212.78
2023-01-17T18:56:00.822Z,98218.88
2023-01-17T18:58:29.615Z,98216.25
2023-01-17T19:01:07.257Z,98217.06
2023-01-17T19:03:34.949Z,98220.53
2023-01-17T19:06:05.734Z,98238.72
2023-01-17T19:08:34.932Z,98234.38
2023-01-17T19:11:04.243Z,98233.50
2023-01-17T19:13:32.628Z,98235.19
2023-01-17T19:16:01.393Z,98229.09
2023-01-17T19:18:29.565Z,98234.28
2023-01-17T19:20:57.187Z,98233.38
2023-01-17T19:23:25.995Z,98246.38
2023-01-17T19:25:55.631Z,98243.75
2023-01-17T19:28:23.229Z,98252.38
2023-01-17T19:31:02.420Z,98260.16
2023-01-17T19:33:29.915Z,98263.59
2023-01-17T19:35:59.930Z,98264.44
2023-01-17T19:38:28.871Z,98272.19
2023-01-17T19:40:56.538Z,98274.78
2023-01-17T19:43:24.370Z,98266.94
2023-01-17T19:45:59.427Z,98265.19
2023-01-17T19:48:27.842Z,98267.75
2023-01-17T19:50:56.105Z,98273.81
2023-01-17T19:53:24.168Z,98279.81
2023-01-17T19:55:52.976Z,98278.09
2023-01-17T19:58:20.453Z,98277.19
2023-01-17T20:00:48.094Z,98271.97
2023-01-17T20:03:15.678Z,98278.88
2023-01-17T20:05:44.859Z,98278.88
2023-01-17T20:08:12.325Z,98274.50
2023-01-17T20:10:39.805Z,98278.78
2023-01-17T20:13:08.890Z,98281.38
2023-01-17T20:15:36.385Z,98277.88
2023-01-17T20:18:03.912Z,98280.44
2023-01-17T20:20:32.538Z,98289.09
2023-01-17T20:23:01.200Z,98290.81
2023-01-17T20:25:28.863Z,98289.91
2023-01-17T20:27:56.730Z,98289.88
2023-01-17T20:30:29.934Z,98290.72
2023-01-17T20:32:57.658Z,98294.13
2023-01-17T20:35:25.358Z,98294.97
2023-01-17T20:37:53.017Z,98307.06
2023-01-17T20:40:20.761Z,98293.19
2023-01-17T20:42:48.337Z,98307.88
2023-01-17T20:45:16.127Z,98306.13
2023-01-17T20:47:45.107Z,98308.72
2023-01-17T20:50:12.915Z,98317.34
2023-01-17T20:52:40.387Z,98324.25
2023-01-17T20:55:09.189Z,98328.59
2023-01-17T20:57:36.661Z,98332.88
2023-01-17T21:00:05.735Z,98331.97
2023-01-17T21:02:33.328Z,98344.97
2023-01-17T21:05:03.644Z,98356.16
2023-01-17T21:07:31.157Z,98349.19
2023-01-17T21:09:58.637Z,98353.47
2023-01-17T21:12:26.193Z,98350.00
2023-01-17T21:14:53.774Z,98352.56
2023-01-17T21:17:21.274Z,98364.69
2023-01-17T21:19:48.747Z,98361.19
2023-01-17T21:22:17.807Z,98369.81
2023-01-17T21:24:45.359Z,98380.19
2023-01-17T21:27:12.916Z,98383.69
2023-01-17T21:29:40.465Z,98388.84
2023-01-17T21:32:08.665Z,98390.56
2023-01-17T21:34:36.176Z,98387.06
2023-01-17T21:37:03.672Z,98382.78
2023-01-17T21:39:32.627Z,98385.34
2023-01-17T21:42:00.148Z,98388.78
2023-01-17T21:44:27.646Z,98393.09
2023-01-17T21:46:56.572Z,98393.09
2023-01-17T21:49:24.545Z,98389.63
2023-01-17T21:52:09.720Z,98387.84
2023-01-17T21:54:56.142Z,98392.19
2023-01-17T21:57:41.862Z,98399.94
2023-01-17T22:00:14.304Z,98402.53
2023-01-17T22:02:43.519Z,98399.94
2023-01-17T22:05:11.499Z,98414.63
2023-01-17T22:07:39.927Z,98418.09
2023-01-17T22:10:10.068Z,98411.19
2023-01-17T22:12:37.555Z,98415.47
2023-01-17T22:15:06.197Z,98415.44
2023-01-17T22:17:33.965Z,98421.44
2023-01-17T22:20:01.469Z,98417.97
2023-01-17T22:22:32.979Z,98423.16
2023-01-17T22:25:00.479Z,98415.31
2023-01-17T22:27:30.134Z,98418.78
2023-01-17T22:29:57.618Z,98415.28
2023-01-17T22:32:25.230Z,98412.66
2023-01-17T22:34:53.496Z,98412.63
2023-01-17T22:37:21.005Z,98416.97
2023-01-17T22:39:48.481Z,98416.06
2023-01-17T22:42:16.594Z,98409.16
2023-01-17T22:44:45.647Z,98418.69
2023-01-17T22:47:13.333Z,98410.91
2023-01-17T22:49:40.861Z,98406.56
2023-01-17T22:52:08.510Z,98401.38
2023-01-17T22:54:35.965Z,98390.13
2023-01-17T22:57:03.479Z,98398.78
2023-01-17T22:59:33.784Z,98390.13
2023-01-17T23:02:02.721Z,98384.91
2023-01-17T23:04:30.251Z,98389.25
2023-01-17T23:06:57.768Z,98389.22
2023-01-17T23:09:25.284Z,98391.81
2023-01-17T23:11:55.092Z,98380.50
2023-01-17T23:14:24.675Z,98389.16
2023-01-17T23:17:11.737Z,98386.53
2023-01-17T23:19:42.567Z,98383.91
2023-01-17T23:22:19.237Z,98380.41
2023-01-17T23:24:53.371Z,98383.84
2023-01-17T23:27:40.594Z,98371.69
2023-01-17T23:30:11.676Z,98370.81
2023-01-17T23:32:40.014Z,98372.53
2023-01-17T23:35:09.191Z,98368.19
2023-01-17T23:37:54.680Z,98362.97
2023-01-17T23:40:22.295Z,98362.09
2023-01-17T23:43:07.828Z,98344.75
2023-01-17T23:45:36.620Z,98344.72
2023-01-17T23:48:05.580Z,98342.13
2023-01-17T23:50:34.521Z,98336.06
2023-01-17T23:53:06.784Z,98342.13
2023-01-17T23:55:35.902Z,98336.91
2023-01-17T23:58:03.632Z,98348.97
